Airport View

Enter AWOS ICAO identifier for current METAR.

ex. KFNL

KTDF 112235Z AUTO 00000KT 10SM CLR 01/M04 A3047 RMK AO2

11 Dec 2019 22:44

Frequency: 126.725

Phone: 336-364-1651

Other Area AWOS: KIGX - KHNZ - KRDU - KW78

TAF KRDU 111720Z 1118/1218 36007KT P6SM BKN250 FM120300 VRB03KT P6SM SKC FM121400 05007KT P6SM SKC